createdAt,value
2023-03-14T00:00:19.124Z,7.40
2023-03-14T00:01:30.589Z,6.53
2023-03-14T00:02:42.238Z,8.52
2023-03-14T00:03:53.839Z,9.52
2023-03-14T00:05:07.650Z,8.43
2023-03-14T00:06:19.781Z,6.95
2023-03-14T00:07:34.949Z,6.70
2023-03-14T00:08:46.755Z,5.72
2023-03-14T00:09:58.196Z,7.47
2023-03-14T00:11:10.946Z,8.55
2023-03-14T00:12:22.399Z,6.32
2023-03-14T00:13:33.859Z,6.85
2023-03-14T00:14:45.358Z,6.93
2023-03-14T00:16:02.220Z,4.85
2023-03-14T00:17:14.758Z,6.40
2023-03-14T00:18:26.200Z,6.00
2023-03-14T00:19:37.694Z,4.55
2023-03-14T00:20:49.270Z,4.60
2023-03-14T00:22:00.810Z,4.32
2023-03-14T00:23:12.213Z,3.90
2023-03-14T00:24:23.634Z,3.63
2023-03-14T00:25:35.815Z,2.80
2023-03-14T00:26:47.272Z,3.65
2023-03-14T00:27:58.723Z,3.38
2023-03-14T00:29:10.169Z,4.20
2023-03-14T00:30:21.660Z,3.33
2023-03-14T00:31:33.433Z,4.07
2023-03-14T00:32:44.923Z,3.00
2023-03-14T00:33:56.438Z,2.38
2023-03-14T00:35:08.019Z,2.90
2023-03-14T00:36:21.442Z,3.33
2023-03-14T00:37:33.019Z,3.95
2023-03-14T00:38:47.247Z,3.03
2023-03-14T00:39:59.694Z,2.97
2023-03-14T00:41:13.146Z,2.72
2023-03-14T00:42:24.593Z,3.42
2023-03-14T00:43:36.136Z,2.50
2023-03-14T00:44:47.660Z,2.85
2023-03-14T00:45:59.226Z,3.00
2023-03-14T00:47:10.711Z,3.35
2023-03-14T00:48:22.426Z,2.72
2023-03-14T00:49:33.967Z,2.80
2023-03-14T00:50:45.579Z,2.88
2023-03-14T00:51:57.022Z,2.67
2023-03-14T00:53:08.501Z,2.67
2023-03-14T00:54:20.819Z,2.45
2023-03-14T00:55:32.260Z,3.00
2023-03-14T00:56:43.703Z,3.00
2023-03-14T00:57:55.159Z,2.78
2023-03-14T00:59:06.610Z,3.00
2023-03-14T01:00:18.282Z,3.35
2023-03-14T01:01:29.770Z,3.60
2023-03-14T01:02:41.362Z,3.58
2023-03-14T01:03:53.580Z,3.55
2023-03-14T01:05:05.330Z,4.05
2023-03-14T01:06:18.211Z,2.42
2023-03-14T01:07:29.660Z,2.50
2023-03-14T01:08:41.277Z,3.03
2023-03-14T01:09:53.229Z,2.65
2023-03-14T01:11:11.832Z,3.90
2023-03-14T01:12:23.306Z,5.22
2023-03-14T01:13:35.049Z,4.60
2023-03-14T01:14:46.481Z,4.25
2023-03-14T01:16:02.038Z,3.05
2023-03-14T01:17:13.587Z,3.50
2023-03-14T01:18:25.710Z,3.13
2023-03-14T01:19:37.139Z,2.92
2023-03-14T01:20:48.837Z,2.42
2023-03-14T01:22:00.355Z,2.50
2023-03-14T01:23:11.748Z,2.95
2023-03-14T01:24:23.198Z,2.67
2023-03-14T01:25:34.672Z,2.97
2023-03-14T01:26:46.114Z,2.92
2023-03-14T01:27:57.569Z,3.33
2023-03-14T01:29:09.036Z,2.70
2023-03-14T01:30:20.527Z,2.80
2023-03-14T01:31:32.095Z,3.67
2023-03-14T01:32:43.748Z,3.47
2023-03-14T01:33:55.595Z,3.38
2023-03-14T01:35:07.228Z,2.97
2023-03-14T01:36:18.782Z,2.67
2023-03-14T01:37:30.287Z,2.67
2023-03-14T01:38:41.910Z,2.67
2023-03-14T01:39:53.319Z,2.53
2023-03-14T01:41:05.181Z,3.00
2023-03-14T01:42:16.669Z,2.92
2023-03-14T01:43:28.254Z,2.90
2023-03-14T01:44:53.435Z,3.38
2023-03-14T01:46:04.924Z,3.00
2023-03-14T01:47:16.463Z,4.40
2023-03-14T01:48:29.569Z,3.97
2023-03-14T01:49:41.165Z,3.72
2023-03-14T01:50:52.713Z,3.13
2023-03-14T01:52:16.286Z,3.17
2023-03-14T01:53:28.464Z,3.17
2023-03-14T01:54:47.633Z,2.65
2023-03-14T01:55:59.052Z,2.92
2023-03-14T01:57:16.781Z,4.15
2023-03-14T01:58:28.883Z,3.80
2023-03-14T01:59:41.585Z,3.42
2023-03-14T02:00:53.125Z,3.22
2023-03-14T02:02:08.501Z,3.25
2023-03-14T02:03:22.361Z,3.60
2023-03-14T02:04:35.882Z,3.55
2023-03-14T02:05:48.151Z,2.55
2023-03-14T02:07:03.173Z,3.90
2023-03-14T02:08:16.272Z,3.63
2023-03-14T02:09:27.930Z,3.45
2023-03-14T02:10:46.640Z,4.32
2023-03-14T02:11:58.631Z,4.43
2023-03-14T02:13:11.225Z,3.78
2023-03-14T02:14:29.387Z,4.28
2023-03-14T02:15:41.360Z,3.88
2023-03-14T02:16:52.935Z,3.20
2023-03-14T02:18:04.934Z,4.70
2023-03-14T02:19:20.091Z,3.90
2023-03-14T02:20:40.809Z,4.22
2023-03-14T02:21:58.591Z,4.82
2023-03-14T02:23:10.050Z,3.58
2023-03-14T02:24:28.802Z,3.97
2023-03-14T02:25:59.022Z,3.65
2023-03-14T02:27:10.444Z,4.35
2023-03-14T02:28:22.283Z,4.32
2023-03-14T02:29:36.170Z,3.88
2023-03-14T02:30:47.787Z,4.03
2023-03-14T02:31:59.462Z,3.80
2023-03-14T02:33:12.464Z,3.97
2023-03-14T02:34:24.734Z,4.15
2023-03-14T02:35:38.976Z,3.72
2023-03-14T02:36:50.655Z,4.40
2023-03-14T02:38:08.312Z,2.92
2023-03-14T02:39:25.484Z,3.75
2023-03-14T02:40:37.128Z,3.92
2023-03-14T02:41:50.284Z,3.25
2023-03-14T02:43:01.735Z,3.70
2023-03-14T02:44:13.202Z,2.33
2023-03-14T02:45:24.635Z,2.78
2023-03-14T02:46:36.096Z,3.17
2023-03-14T02:47:50.464Z,2.65
2023-03-14T02:49:04.165Z,3.60
2023-03-14T02:50:18.380Z,3.20
2023-03-14T02:51:30.052Z,2.78
2023-03-14T02:52:41.507Z,2.55
2023-03-14T02:53:52.920Z,3.58
2023-03-14T02:55:04.758Z,3.40
2023-03-14T02:56:16.212Z,3.20
2023-03-14T02:57:27.660Z,4.32
2023-03-14T02:58:39.232Z,5.15
2023-03-14T02:59:50.669Z,5.60
2023-03-14T03:01:02.184Z,5.20
2023-03-14T03:02:13.677Z,4.65
2023-03-14T03:03:25.287Z,4.38
2023-03-14T03:04:36.781Z,4.68
2023-03-14T03:05:51.859Z,4.03
2023-03-14T03:07:03.321Z,3.88
2023-03-14T03:08:14.765Z,3.08
2023-03-14T03:09:26.203Z,3.35
2023-03-14T03:10:37.658Z,3.45
2023-03-14T03:11:49.091Z,3.28
2023-03-14T03:13:00.527Z,3.42
2023-03-14T03:14:11.991Z,2.65
2023-03-14T03:15:23.663Z,3.60
2023-03-14T03:16:35.137Z,4.07
2023-03-14T03:17:46.627Z,3.60
2023-03-14T03:18:58.071Z,4.25
2023-03-14T03:20:10.253Z,3.70
2023-03-14T03:21:24.433Z,4.00
2023-03-14T03:22:37.030Z,3.65
2023-03-14T03:23:48.452Z,4.15
2023-03-14T03:24:59.855Z,3.50
2023-03-14T03:26:11.911Z,3.20
2023-03-14T03:27:23.337Z,2.85
2023-03-14T03:28:34.770Z,3.13
2023-03-14T03:29:46.243Z,4.30
2023-03-14T03:30:57.710Z,3.78
2023-03-14T03:32:09.188Z,3.35
2023-03-14T03:33:20.715Z,3.35
2023-03-14T03:34:32.129Z,3.15
2023-03-14T03:35:44.605Z,3.67
2023-03-14T03:36:59.052Z,3.05
2023-03-14T03:38:10.601Z,3.25
2023-03-14T03:39:22.016Z,2.83
2023-03-14T03:40:33.416Z,3.35
2023-03-14T03:41:44.873Z,3.50
2023-03-14T03:42:56.358Z,3.15
2023-03-14T03:44:07.893Z,3.05
2023-03-14T03:45:19.350Z,3.45
2023-03-14T03:46:30.760Z,3.38
2023-03-14T03:47:42.225Z,3.45
2023-03-14T03:48:57.386Z,2.90
2023-03-14T03:50:09.018Z,3.10
2023-03-14T03:51:20.452Z,3.05
2023-03-14T03:52:31.874Z,3.25
2023-03-14T03:53:43.413Z,2.53
2023-03-14T03:54:54.964Z,2.88
2023-03-14T03:56:06.644Z,3.22
2023-03-14T03:57:18.093Z,3.75
2023-03-14T03:58:29.597Z,3.10
2023-03-14T03:59:42.161Z,3.53
2023-03-14T04:00:53.587Z,2.38
2023-03-14T04:02:05.317Z,3.55
2023-03-14T04:03:16.860Z,2.85
2023-03-14T04:04:28.497Z,3.33
2023-03-14T04:05:39.940Z,2.35
2023-03-14T04:06:51.370Z,2.55
2023-03-14T04:08:03.089Z,2.45
2023-03-14T04:09:14.696Z,2.85
2023-03-14T04:10:26.167Z,2.67
2023-03-14T04:11:37.848Z,2.45
2023-03-14T04:12:49.359Z,3.17
2023-03-14T04:14:00.862Z,2.78
2023-03-14T04:15:12.381Z,2.53
2023-03-14T04:16:24.993Z,3.05
2023-03-14T04:17:36.489Z,2.40
2023-03-14T04:18:48.038Z,2.72
2023-03-14T04:19:59.492Z,6.47
2023-03-14T04:21:10.989Z,5.85
2023-03-14T04:22:22.506Z,5.50
2023-03-14T04:23:34.562Z,3.97
2023-03-14T04:24:46.008Z,3.08
2023-03-14T04:25:57.484Z,2.60
2023-03-14T04:27:08.925Z,2.33
2023-03-14T04:28:20.356Z,2.67
2023-03-14T04:29:31.790Z,4.25
2023-03-14T04:30:43.333Z,5.05
2023-03-14T04:31:54.776Z,4.60
2023-03-14T04:33:06.396Z,3.70
2023-03-14T04:34:17.884Z,3.90
2023-03-14T04:35:31.265Z,2.83
2023-03-14T04:36:42.692Z,2.85
2023-03-14T04:37:54.110Z,2.70
2023-03-14T04:39:05.528Z,2.30
2023-03-14T04:40:18.652Z,3.10
2023-03-14T04:41:30.298Z,2.60
2023-03-14T04:42:41.729Z,3.35
2023-03-14T04:43:53.169Z,3.70
2023-03-14T04:45:05.061Z,4.53
2023-03-14T04:46:16.778Z,3.70
2023-03-14T04:47:28.363Z,4.47
2023-03-14T04:48:39.842Z,5.55
2023-03-14T04:49:51.284Z,6.07
2023-03-14T04:51:02.775Z,5.65
2023-03-14T04:52:14.268Z,6.10
2023-03-14T04:53:25.748Z,5.22
2023-03-14T04:54:37.224Z,5.63
2023-03-14T04:55:49.881Z,5.13
2023-03-14T04:57:01.309Z,5.35
2023-03-14T04:58:12.731Z,4.45
2023-03-14T04:59:24.208Z,6.10
2023-03-14T05:00:36.786Z,4.68
2023-03-14T05:01:51.037Z,3.80
2023-03-14T05:03:02.654Z,4.72
2023-03-14T05:04:14.132Z,4.25
2023-03-14T05:05:25.701Z,4.53
2023-03-14T05:06:37.138Z,3.72
2023-03-14T05:07:48.823Z,4.03
2023-03-14T05:09:00.305Z,6.18
2023-03-14T05:10:11.803Z,5.22
2023-03-14T05:11:23.276Z,5.75
2023-03-14T05:12:34.740Z,6.38
2023-03-14T05:13:46.182Z,5.78
2023-03-14T05:14:57.613Z,6.90
2023-03-14T05:16:10.282Z,5.78
2023-03-14T05:17:21.887Z,9.48
2023-03-14T05:18:33.356Z,6.00
2023-03-14T05:19:44.903Z,10.13
2023-03-14T05:20:56.382Z,20.50
2023-03-14T05:22:07.995Z,20.02
2023-03-14T05:23:19.447Z,104.70
2023-03-14T05:24:30.952Z,77.35
2023-03-14T05:25:43.843Z,102.32
2023-03-14T05:26:55.284Z,120.85
2023-03-14T05:28:06.923Z,86.00
2023-03-14T05:29:18.419Z,35.90
2023-03-14T05:30:31.869Z,16.20
2023-03-14T05:31:43.453Z,16.23
2023-03-14T05:32:55.316Z,28.95
2023-03-14T05:34:06.828Z,16.95
2023-03-14T05:35:18.294Z,17.25
2023-03-14T05:36:29.797Z,10.02
2023-03-14T05:37:41.254Z,6.32
2023-03-14T05:38:52.668Z,6.28
2023-03-14T05:40:05.739Z,10.23
2023-03-14T05:41:17.165Z,4.60
2023-03-14T05:42:28.580Z,6.07
2023-03-14T05:43:40.425Z,7.45
2023-03-14T05:44:51.927Z,6.70
2023-03-14T05:46:03.462Z,7.68
2023-03-14T05:47:15.073Z,6.40
2023-03-14T05:48:26.509Z,5.80
2023-03-14T05:49:37.955Z,5.93
2023-03-14T05:50:49.631Z,6.25
2023-03-14T05:52:01.129Z,6.85
2023-03-14T05:53:12.864Z,9.07
2023-03-14T05:54:24.334Z,13.80
2023-03-14T05:55:35.766Z,9.98
2023-03-14T05:56:47.206Z,12.60
2023-03-14T05:57:58.615Z,9.63
2023-03-14T05:59:10.919Z,8.95
2023-03-14T06:00:22.725Z,10.57
2023-03-14T06:01:34.230Z,10.48
2023-03-14T06:02:45.689Z,10.93
2023-03-14T06:03:57.125Z,8.73
2023-03-14T06:05:08.994Z,11.18
2023-03-14T06:06:20.478Z,11.88
2023-03-14T06:07:31.936Z,9.25
2023-03-14T06:08:43.546Z,9.18
2023-03-14T06:09:55.020Z,8.18
2023-03-14T06:11:06.681Z,9.15
2023-03-14T06:12:18.451Z,8.10
2023-03-14T06:13:30.455Z,6.55
2023-03-14T06:14:41.906Z,7.95
2023-03-14T06:15:53.423Z,10.15
2023-03-14T06:17:04.886Z,10.98
2023-03-14T06:18:16.345Z,10.90
2023-03-14T06:19:27.761Z,11.35
2023-03-14T06:20:42.518Z,10.57
2023-03-14T06:21:54.044Z,9.80
2023-03-14T06:23:06.204Z,9.80
2023-03-14T06:24:17.612Z,8.55
2023-03-14T06:25:29.176Z,8.02
2023-03-14T06:26:40.622Z,7.65
2023-03-14T06:27:52.091Z,8.40
2023-03-14T06:29:04.547Z,6.65
2023-03-14T06:30:16.214Z,7.43
2023-03-14T06:31:27.684Z,8.05
2023-03-14T06:32:39.110Z,6.40
2023-03-14T06:33:50.576Z,5.15
2023-03-14T06:35:02.172Z,3.78
2023-03-14T06:36:13.648Z,5.72
2023-03-14T06:37:25.134Z,4.28
2023-03-14T06:38:36.650Z,6.00
2023-03-14T06:39:48.126Z,4.50
2023-03-14T06:41:06.301Z,6.50
2023-03-14T06:42:17.813Z,4.28
2023-03-14T06:43:29.254Z,4.85
2023-03-14T06:44:40.729Z,4.85
2023-03-14T06:45:52.260Z,4.80
2023-03-14T06:47:03.832Z,4.97
2023-03-14T06:48:15.295Z,5.13
2023-03-14T06:49:26.740Z,6.90
2023-03-14T06:50:38.184Z,7.35
2023-03-14T06:51:50.250Z,6.00
2023-03-14T06:53:01.794Z,5.80
2023-03-14T06:54:13.505Z,6.72
2023-03-14T06:55:25.291Z,5.35
2023-03-14T06:56:36.827Z,9.77
2023-03-14T06:57:48.350Z,6.70
2023-03-14T06:58:59.906Z,4.85
2023-03-14T07:00:12.162Z,7.95
2023-03-14T07:01:30.748Z,5.10
2023-03-14T07:02:43.511Z,4.18
2023-03-14T07:03:55.167Z,4.20
2023-03-14T07:05:07.043Z,4.10
2023-03-14T07:06:18.572Z,4.13
2023-03-14T07:07:30.047Z,5.95
2023-03-14T07:08:42.904Z,5.50
2023-03-14T07:09:54.751Z,3.90
2023-03-14T07:11:06.480Z,3.28
2023-03-14T07:12:17.999Z,4.00
2023-03-14T07:13:29.456Z,3.15
2023-03-14T07:14:40.997Z,4.93
2023-03-14T07:15:52.442Z,5.32
2023-03-14T07:17:04.067Z,4.97
2023-03-14T07:18:15.572Z,5.47
2023-03-14T07:19:27.112Z,4.65
2023-03-14T07:20:38.584Z,5.22
2023-03-14T07:21:50.036Z,5.25
2023-03-14T07:23:03.501Z,5.25
2023-03-14T07:24:14.904Z,4.93
2023-03-14T07:25:26.715Z,2.83
2023-03-14T07:26:38.211Z,3.85
2023-03-14T07:27:49.712Z,3.33
2023-03-14T07:29:01.257Z,4.03
2023-03-14T07:30:13.145Z,3.97
2023-03-14T07:31:25.018Z,3.95
2023-03-14T07:32:36.565Z,3.65
2023-03-14T07:33:48.111Z,4.65
2023-03-14T07:34:59.597Z,5.05
2023-03-14T07:36:11.142Z,5.43
2023-03-14T07:37:22.651Z,6.10
2023-03-14T07:38:34.154Z,12.32
2023-03-14T07:39:45.573Z,9.18
2023-03-14T07:41:04.292Z,10.27
2023-03-14T07:42:15.869Z,8.20
2023-03-14T07:43:27.417Z,6.38
2023-03-14T07:44:38.965Z,5.10
2023-03-14T07:45:51.267Z,13.05
2023-03-14T07:47:03.055Z,14.88
2023-03-14T07:48:15.500Z,10.02
2023-03-14T07:49:26.913Z,7.90
2023-03-14T07:50:38.350Z,7.45
2023-03-14T07:51:49.921Z,5.82
2023-03-14T07:53:01.411Z,6.32
2023-03-14T07:54:12.862Z,4.07
2023-03-14T07:55:24.358Z,5.57
2023-03-14T07:56:35.872Z,4.43
2023-03-14T07:57:47.441Z,5.30
2023-03-14T07:58:59.138Z,6.10
2023-03-14T08:00:11.176Z,4.28
2023-03-14T08:01:22.600Z,4.50
2023-03-14T08:02:34.134Z,5.35
2023-03-14T08:03:45.787Z,3.90
2023-03-14T08:04:57.255Z,3.72
2023-03-14T08:06:08.713Z,3.40
2023-03-14T08:07:20.117Z,3.75
2023-03-14T08:08:32.795Z,3.53
2023-03-14T08:09:44.262Z,4.65
2023-03-14T08:10:55.713Z,3.92
2023-03-14T08:12:07.384Z,3.78
2023-03-14T08:13:18.869Z,3.03
2023-03-14T08:14:31.412Z,3.25
2023-03-14T08:15:42.944Z,3.58
2023-03-14T08:16:54.547Z,3.55
2023-03-14T08:18:06.335Z,3.20
2023-03-14T08:19:17.765Z,3.55
2023-03-14T08:20:30.520Z,3.08
2023-03-14T08:21:41.994Z,6.63
2023-03-14T08:22:53.727Z,3.88
2023-03-14T08:24:05.541Z,5.10
2023-03-14T08:25:17.062Z,3.03
2023-03-14T08:26:28.673Z,3.10
2023-03-14T08:27:40.288Z,2.78
2023-03-14T08:28:54.960Z,4.80
2023-03-14T08:30:07.455Z,3.28
2023-03-14T08:31:18.926Z,3.13
2023-03-14T08:32:31.062Z,2.85
2023-03-14T08:33:42.652Z,2.95
2023-03-14T08:34:54.097Z,2.88
2023-03-14T08:36:05.772Z,2.30
2023-03-14T08:37:26.284Z,2.50
2023-03-14T08:38:38.563Z,2.72
2023-03-14T08:39:50.038Z,2.83
2023-03-14T08:41:02.047Z,3.03
2023-03-14T08:42:13.807Z,3.03
2023-03-14T08:43:25.293Z,2.92
2023-03-14T08:44:36.790Z,2.42
2023-03-14T08:45:48.359Z,2.67
2023-03-14T08:46:59.842Z,3.28
2023-03-14T08:48:11.339Z,3.17
2023-03-14T08:49:22.817Z,3.25
2023-03-14T08:50:34.351Z,2.35
2023-03-14T08:51:45.820Z,3.08
2023-03-14T08:53:00.920Z,3.03
2023-03-14T08:54:12.460Z,2.40
2023-03-14T08:55:24.118Z,2.83
2023-03-14T08:56:35.654Z,2.08
2023-03-14T08:57:47.414Z,3.05
2023-03-14T08:58:58.869Z,2.83
2023-03-14T09:00:13.536Z,2.45
2023-03-14T09:01:26.419Z,2.42
2023-03-14T09:02:38.029Z,2.28
2023-03-14T09:03:49.977Z,2.60
2023-03-14T09:05:01.582Z,2.17
2023-03-14T09:06:13.066Z,2.55
2023-03-14T09:07:24.476Z,2.17
2023-03-14T09:08:38.879Z,2.45
2023-03-14T09:09:50.880Z,3.13
2023-03-14T09:11:02.711Z,2.20
2023-03-14T09:12:14.171Z,2.40
2023-03-14T09:13:25.654Z,2.60
2023-03-14T09:14:37.127Z,2.40
2023-03-14T09:15:52.280Z,2.63
2023-03-14T09:17:04.375Z,2.30
2023-03-14T09:18:15.800Z,2.30
2023-03-14T09:19:27.398Z,2.05
2023-03-14T09:20:38.868Z,2.35
2023-03-14T09:21:50.309Z,2.30
2023-03-14T09:23:01.824Z,2.22
2023-03-14T09:24:13.306Z,3.03
2023-03-14T09:25:24.778Z,2.40
2023-03-14T09:26:36.229Z,1.95
2023-03-14T09:27:47.642Z,2.22
2023-03-14T09:28:59.145Z,2.42
2023-03-14T09:30:10.949Z,2.75
2023-03-14T09:31:22.539Z,2.72
2023-03-14T09:32:34.078Z,1.95
2023-03-14T09:33:45.808Z,2.13
2023-03-14T09:34:57.303Z,3.47
2023-03-14T09:36:08.924Z,3.90
2023-03-14T09:37:21.223Z,2.45
2023-03-14T09:38:34.034Z,2.05
2023-03-14T09:39:45.482Z,2.67
2023-03-14T09:40:58.842Z,4.00
2023-03-14T09:42:14.128Z,2.72
2023-03-14T09:43:26.112Z,2.85
2023-03-14T09:44:40.372Z,2.75
2023-03-14T09:45:52.227Z,2.20
2023-03-14T09:47:07.813Z,2.20
2023-03-14T09:48:23.343Z,2.78
2023-03-14T09:49:35.702Z,1.75
2023-03-14T09:50:54.102Z,4.65
2023-03-14T09:52:31.856Z,1.95
2023-03-14T09:53:45.114Z,3.88
2023-03-14T09:55:31.732Z,1.90
2023-03-14T09:56:43.131Z,2.10
2023-03-14T09:58:06.308Z,1.80
2023-03-14T09:59:17.932Z,1.85
2023-03-14T10:00:31.514Z,2.42
2023-03-14T10:01:43.024Z,1.88
2023-03-14T10:02:56.758Z,2.47
2023-03-14T10:04:11.893Z,1.90
2023-03-14T10:05:24.804Z,2.08
2023-03-14T10:06:36.532Z,1.90
2023-03-14T10:07:48.090Z,2.13
2023-03-14T10:09:01.816Z,1.88
2023-03-14T10:10:16.757Z,1.77
2023-03-14T10:11:28.389Z,2.33
2023-03-14T10:12:43.130Z,2.85
2023-03-14T10:14:06.709Z,2.47
2023-03-14T10:15:25.153Z,1.98
2023-03-14T10:16:46.760Z,2.58
2023-03-14T10:18:00.134Z,2.10
2023-03-14T10:19:12.645Z,2.17
2023-03-14T10:20:37.537Z,2.17
2023-03-14T10:21:56.080Z,1.75
2023-03-14T10:23:13.736Z,1.83
2023-03-14T10:24:28.090Z,2.50
2023-03-14T10:25:41.012Z,1.80
2023-03-14T10:26:56.582Z,1.95
2023-03-14T10:28:27.870Z,1.88
2023-03-14T10:29:52.821Z,1.92
2023-03-14T10:31:05.318Z,2.30
2023-03-14T10:32:20.907Z,2.25
2023-03-14T10:33:33.803Z,2.70
2023-03-14T10:34:45.239Z,1.95
2023-03-14T10:35:58.323Z,2.00
2023-03-14T10:37:22.684Z,1.90
2023-03-14T10:38:35.813Z,2.20
2023-03-14T10:39:48.545Z,1.92
2023-03-14T10:41:02.883Z,2.08
2023-03-14T10:42:22.076Z,2.85
2023-03-14T10:43:35.309Z,2.60
2023-03-14T10:44:47.281Z,2.28
2023-03-14T10:46:00.922Z,2.42
2023-03-14T10:47:20.400Z,2.97
2023-03-14T10:48:37.118Z,2.85
2023-03-14T10:49:51.477Z,2.95
2023-03-14T10:51:05.036Z,2.97
2023-03-14T10:52:50.941Z,3.15
2023-03-14T10:54:01.236Z,3.22
2023-03-14T10:55:13.350Z,2.33
2023-03-14T10:56:25.702Z,2.75
2023-03-14T10:57:43.448Z,2.40
2023-03-14T10:58:57.884Z,2.00
2023-03-14T11:00:18.014Z,2.45
2023-03-14T11:01:44.840Z,2.47
2023-03-14T11:02:56.301Z,7.88
2023-03-14T11:04:26.545Z,2.85
2023-03-14T11:05:46.728Z,1.80
2023-03-14T11:07:05.577Z,2.40
2023-03-14T11:08:17.030Z,1.85
2023-03-14T11:09:34.379Z,2.25
2023-03-14T11:10:49.230Z,2.75
2023-03-14T11:12:07.229Z,2.88
2023-03-14T11:13:31.408Z,2.30
2023-03-14T11:14:47.698Z,1.95
2023-03-14T11:16:14.603Z,2.03
2023-03-14T11:17:35.856Z,2.00
2023-03-14T11:18:53.569Z,2.40
2023-03-14T11:20:05.374Z,1.92
2023-03-14T11:21:23.869Z,2.53
2023-03-14T11:22:44.651Z,1.88
2023-03-14T11:24:22.534Z,2.72
2023-03-14T11:25:39.689Z,2.53
2023-03-14T11:27:00.144Z,2.40
2023-03-14T11:28:30.417Z,13.20
2023-03-14T11:29:44.066Z,4.13
2023-03-14T11:30:57.584Z,24.90
2023-03-14T11:32:16.278Z,17.73
2023-03-14T11:33:30.763Z,2.78
2023-03-14T11:35:02.602Z,2.50
2023-03-14T11:36:21.120Z,2.07
2023-03-14T11:37:37.139Z,4.30
2023-03-14T11:38:49.141Z,1.98
2023-03-14T11:40:14.791Z,2.80
2023-03-14T11:41:28.201Z,3.57
2023-03-14T11:42:41.965Z,2.17
2023-03-14T11:43:56.483Z,2.33
2023-03-14T11:45:15.124Z,2.37
2023-03-14T11:46:28.969Z,2.00
2023-03-14T11:47:40.918Z,2.30
2023-03-14T11:49:01.500Z,10.87
2023-03-14T11:50:16.064Z,3.60
2023-03-14T11:51:34.121Z,2.00
2023-03-14T11:52:50.383Z,2.60
2023-03-14T11:54:05.044Z,2.10
2023-03-14T11:55:16.768Z,2.00
2023-03-14T11:56:38.804Z,2.70
2023-03-14T11:57:51.659Z,2.00
2023-03-14T11:59:09.980Z,2.50
2023-03-14T12:00:23.478Z,2.10
2023-03-14T12:01:41.646Z,2.00
2023-03-14T12:03:19.391Z,1.80
2023-03-14T12:04:36.984Z,1.87
2023-03-14T12:06:03.658Z,2.00
2023-03-14T12:07:20.349Z,2.13
2023-03-14T12:08:47.170Z,4.60
2023-03-14T12:09:58.649Z,2.00
2023-03-14T12:11:15.883Z,1.67
2023-03-14T12:12:29.104Z,1.87
2023-03-14T12:13:41.223Z,2.43
2023-03-14T12:14:54.216Z,1.93
2023-03-14T12:16:07.690Z,2.03
2023-03-14T12:17:39.505Z,1.90
2023-03-14T12:18:51.764Z,1.63
2023-03-14T12:20:15.375Z,2.00
2023-03-14T12:21:44.954Z,1.63
2023-03-14T12:22:57.914Z,1.57
2023-03-14T12:24:18.237Z,1.70
2023-03-14T12:25:32.158Z,1.73
2023-03-14T12:26:53.599Z,1.43
2023-03-14T12:28:06.564Z,1.50
2023-03-14T12:29:18.775Z,1.50
2023-03-14T12:30:38.251Z,1.70
2023-03-14T12:31:50.546Z,2.30
2023-03-14T12:33:11.090Z,1.60
2023-03-14T12:34:22.520Z,1.57
2023-03-14T12:35:35.519Z,1.50
2023-03-14T12:36:54.597Z,1.60
2023-03-14T12:38:07.461Z,1.47
2023-03-14T12:39:41.183Z,1.63
2023-03-14T12:41:11.576Z,1.60
2023-03-14T12:42:45.169Z,1.40
2023-03-14T12:43:57.160Z,2.10
2023-03-14T12:45:15.662Z,1.13
2023-03-14T12:46:28.368Z,1.70
2023-03-14T12:47:39.882Z,1.83
2023-03-14T12:49:05.177Z,1.77
2023-03-14T12:50:20.501Z,1.33
2023-03-14T12:51:34.780Z,1.27
2023-03-14T12:52:56.848Z,1.30
2023-03-14T12:54:27.438Z,1.40
2023-03-14T12:55:44.296Z,2.17
2023-03-14T12:57:16.339Z,1.57
2023-03-14T12:58:33.281Z,1.60
2023-03-14T13:00:08.471Z,1.80
2023-03-14T13:01:20.479Z,2.10
2023-03-14T13:02:41.137Z,2.57
2023-03-14T13:03:55.236Z,2.20
2023-03-14T13:05:12.270Z,1.63
2023-03-14T13:06:42.731Z,1.60
2023-03-14T13:08:00.808Z,2.20
2023-03-14T13:09:30.381Z,1.63
2023-03-14T13:10:48.820Z,1.50
2023-03-14T13:12:19.258Z,1.17
2023-03-14T13:13:30.737Z,1.50
2023-03-14T13:14:43.798Z,1.67
2023-03-14T13:15:59.235Z,1.63
2023-03-14T13:18:47.753Z,1.20
2023-03-14T13:20:01.881Z,1.50
2023-03-14T13:21:16.429Z,1.40
2023-03-14T13:22:32.740Z,1.50
2023-03-14T13:24:02.302Z,2.03
2023-03-14T13:25:13.714Z,1.50
2023-03-14T13:26:26.971Z,2.40
2023-03-14T13:27:38.730Z,1.50
2023-03-14T13:28:52.800Z,1.40
2023-03-14T13:30:22.018Z,1.90
2023-03-14T13:31:33.552Z,1.47
2023-03-14T13:32:46.206Z,1.60
2023-03-14T13:34:07.991Z,1.40
2023-03-14T13:35:19.544Z,1.70
2023-03-14T13:36:31.189Z,1.60
2023-03-14T13:37:42.594Z,1.40
2023-03-14T13:39:02.553Z,1.60
2023-03-14T13:40:21.109Z,1.50
2023-03-14T13:41:32.622Z,1.90
2023-03-14T13:42:44.135Z,1.60
2023-03-14T13:44:15.283Z,1.90
2023-03-14T13:45:26.735Z,1.20
2023-03-14T13:46:39.723Z,2.10
2023-03-14T13:47:52.712Z,3.27
2023-03-14T13:49:05.272Z,2.67
2023-03-14T13:50:18.204Z,1.70
2023-03-14T13:51:32.573Z,2.20
2023-03-14T13:52:44.298Z,1.87
2023-03-14T13:53:56.443Z,1.50
2023-03-14T13:55:15.108Z,1.77
2023-03-14T13:56:28.528Z,2.47
2023-03-14T13:57:47.605Z,1.60
2023-03-14T13:58:59.302Z,1.83
2023-03-14T14:00:27.839Z,1.60
2023-03-14T14:01:39.580Z,2.13
2023-03-14T14:02:52.619Z,2.17
2023-03-14T14:04:15.407Z,2.17
2023-03-14T14:05:28.232Z,1.67
2023-03-14T14:06:45.194Z,1.80
2023-03-14T14:07:57.199Z,1.63
2023-03-14T14:09:20.771Z,1.70
2023-03-14T14:10:32.978Z,1.73
2023-03-14T14:11:51.018Z,2.90
2023-03-14T14:13:11.787Z,2.47
2023-03-14T14:14:28.964Z,1.97
2023-03-14T14:15:45.330Z,2.23
2023-03-14T14:16:57.282Z,5.00
2023-03-14T14:18:10.984Z,2.23
2023-03-14T14:19:23.884Z,1.80
2023-03-14T14:20:47.564Z,1.40
2023-03-14T14:22:02.773Z,1.83
2023-03-14T14:23:15.972Z,2.03
2023-03-14T14:24:30.113Z,1.60
2023-03-14T14:25:41.686Z,1.93
2023-03-14T14:26:53.955Z,2.57
2023-03-14T14:28:31.884Z,1.63
2023-03-14T14:29:43.859Z,1.97
2023-03-14T14:31:07.431Z,2.03
2023-03-14T14:32:18.842Z,1.60
2023-03-14T14:33:30.356Z,2.33
2023-03-14T14:34:42.239Z,2.13
2023-03-14T14:35:55.904Z,2.37
2023-03-14T14:37:18.218Z,1.73
2023-03-14T14:38:31.326Z,1.97
2023-03-14T14:39:42.816Z,1.83
2023-03-14T14:40:56.384Z,1.67
2023-03-14T14:42:14.262Z,2.10
2023-03-14T14:43:27.539Z,2.20
2023-03-14T14:44:38.976Z,2.20
2023-03-14T14:45:52.209Z,2.57
2023-03-14T14:47:04.628Z,2.40
2023-03-14T14:48:16.329Z,2.13
2023-03-14T14:49:32.107Z,2.03
2023-03-14T14:50:55.909Z,2.00
2023-03-14T14:52:11.487Z,1.70
2023-03-14T14:53:27.561Z,2.33
2023-03-14T14:54:43.846Z,1.77
2023-03-14T14:55:56.632Z,2.27
2023-03-14T14:57:17.814Z,1.50
2023-03-14T14:58:38.605Z,2.17
2023-03-14T14:59:53.541Z,1.60
2023-03-14T15:01:08.460Z,1.50
2023-03-14T15:02:45.071Z,1.80
2023-03-14T15:03:56.798Z,1.40
2023-03-14T15:05:13.354Z,1.37
2023-03-14T15:06:29.276Z,2.03
2023-03-14T15:07:40.940Z,2.33
2023-03-14T15:08:53.688Z,2.10
2023-03-14T15:10:05.435Z,1.73
2023-03-14T15:11:18.245Z,2.33
2023-03-14T15:12:29.718Z,1.97
2023-03-14T15:13:41.248Z,2.10
2023-03-14T15:14:52.913Z,2.13
2023-03-14T15:16:09.465Z,2.50
2023-03-14T15:17:20.981Z,1.67
2023-03-14T15:18:32.498Z,2.10
2023-03-14T15:19:43.924Z,1.90
2023-03-14T15:20:55.369Z,1.80
2023-03-14T15:22:12.657Z,1.73
2023-03-14T15:23:25.202Z,2.37
2023-03-14T15:24:36.688Z,1.47
2023-03-14T15:25:55.592Z,2.60
2023-03-14T15:27:12.740Z,1.50
2023-03-14T15:28:27.969Z,2.20
2023-03-14T15:29:39.510Z,1.97
2023-03-14T15:30:52.259Z,2.97
2023-03-14T15:32:04.122Z,2.67
2023-03-14T15:33:16.013Z,2.20
2023-03-14T15:34:28.642Z,1.80
2023-03-14T15:35:40.359Z,1.53
2023-03-14T15:36:51.748Z,1.90
2023-03-14T15:38:03.177Z,2.87
2023-03-14T15:39:14.647Z,2.37
2023-03-14T15:40:26.553Z,2.17
2023-03-14T15:41:38.580Z,2.50
2023-03-14T15:42:50.211Z,1.92
2023-03-14T15:44:01.943Z,1.93
2023-03-14T15:45:13.416Z,2.00
2023-03-14T15:46:24.912Z,2.23
2023-03-14T15:47:36.371Z,1.60
2023-03-14T15:48:48.353Z,1.83
2023-03-14T15:49:59.994Z,1.23
2023-03-14T15:51:11.737Z,1.97
2023-03-14T15:52:23.156Z,2.00
2023-03-14T15:53:37.807Z,2.70
2023-03-14T15:54:49.321Z,1.33
2023-03-14T15:56:00.825Z,1.75
2023-03-14T15:57:12.540Z,1.38
2023-03-14T15:58:24.237Z,1.60
2023-03-14T15:59:36.489Z,2.00
2023-03-14T16:00:48.430Z,3.00
2023-03-14T16:01:59.978Z,1.90
2023-03-14T16:03:13.227Z,1.50
2023-03-14T16:04:24.771Z,3.83
2023-03-14T16:05:36.224Z,1.98
2023-03-14T16:06:48.083Z,1.90
2023-03-14T16:07:59.610Z,1.90
2023-03-14T16:09:14.177Z,2.00
2023-03-14T16:10:25.624Z,2.20
2023-03-14T16:11:37.084Z,1.73
2023-03-14T16:12:48.596Z,2.30
2023-03-14T16:14:00.011Z,2.00
2023-03-14T16:15:11.799Z,2.10
2023-03-14T16:16:23.320Z,1.83
2023-03-14T16:17:35.333Z,2.03
2023-03-14T16:18:46.910Z,2.15
2023-03-14T16:19:58.457Z,1.70
2023-03-14T16:21:14.583Z,1.85
2023-03-14T16:22:26.045Z,2.42